Lakeport, CA (95453)

4:14 PM PDT on September 22, 2014 (GMT -0700)
Lakeport NW | Change Station
CLOSE
Current Station
Personal Weather Station
Location: Lakeport, CA
Elevation: 1378 ft
Nearby Weather Stations

Elev 1378 ft 39.06 °N, 122.93 °W | Updated 0 second ago

Clear
Clear
87.8 °F
Feels Like 86 °F
N
0.0
Wind Variable Wind from West
Gusts 2.6 mph

Today
High -- | Low -- °F
--% Chance of Precip.
Yesterday
High -- | Low -- °F
Precip. -- in
6:59 AM 7:08 PM
Waning Crescent, 2% visible
Pressure 29.91 in
Visibility 10.0 miles
Clouds Clear
Heat Index 86 °F
Dew Point 55 °F
Humidity 33%
Rainfall 0.00 in
Snow Depth 0 in , 0 in , 0 in
UV 4 out of 12
Pollen 5.40 out of 12
Air Quality Not available.
Flu Activity Not available.
METAR KUKI 222256Z AUTO VRB06KT 10SM CLR 31/11 A2993 RMK AO2 SLP127 T03060111

More Conditions Fewer Conditions

Pressure 29.91 in
Visibility 10.0 miles
Clouds Clear
Heat Index 86 °F
Dew Point 55 °F
Humidity 33%
Rainfall 0.00 in
Snow Depth 0 in , 0 in , 0 in
UV 4 out of 12
Pollen 5.40 out of 12
Air Quality Not available.
Flu Activity Not available.
METAR KUKI 222256Z AUTO VRB06KT 10SM CLR 31/11 A2993 RMK AO2 SLP127 T03060111

More Conditions Fewer Conditions

10-Day Weather Forecast

Almanac

Astronomy

Sep. 22, 2014 Rise Set
Actual Time 6:59 AM PDT 7:08 PM PDT
Civil Twilight 6:32 AM PDT 7:35 PM PDT
Nautical Twilight 6:01 AM PDT 8:06 PM PDT
Astronomical Twilight 5:29 AM PDT 8:37 PM PDT
Moon 5:33 AM PDT 6:18 PM PDT
Length of Visible Light 13h 02m
Length of Day
12h 09m
Tomorrow will be 2m 32s shorter.
Waning Crescent, 2% of the Moon is Illuminated
Today
Waning Crescent
Sep 24
New
Oct 1
First Quarter
Oct 8
Full
Oct 15
Last Quarter

Today's Extremes

State Highs State Lows

Community

WunderPhotos

Upload Photos

1,755,548 photos uploaded!

Nearby

Snow Depth

Station Depth Elevation
Burnside Lake 0 in 8139 ft
Leavitt Meadows 0 in 7200 ft
Adin Mountain 0 in 6200 ft

Earthquake Activity

City Distance Mag. Time & Date
Yountville, California 57 miles 2.6 1:17 PM PDT
2014-09-21
Eureka, California 147 miles 2.9 1:33 PM PDT
2014-09-20
Livermore, California 113 miles 2.5 3:37 AM PDT
2014-09-19
Minimum magnitude displayed is 2.5.

Coastal Water Temperatures

Place Temperature
No Stations Reporting

Nearby Weather Stations